KRKD/RKD METAR and TAF weather

Enter ICAO airport designator
Station Type Date Time Source
KRKD METAR 2018/12/13 07:56 UTC NOAA

KRKD 130756Z AUTO 30003KT 10SM CLR M14/M17 A3042 RMK AO2 SLP303 T11441172 FZRANO


Station Type Date Time Source
KRKD Decoded METAR 2018/12/13 07:56 UTC NOAA

Rockland, Knox County Regional Airport, ME, United States (KRKD) 44-04N 069-06W
Dec 13, 2018 - 02:56 AM EST / 2018.12.13 0756 UTC
Wind: from the WNW (300 degrees) at 3 MPH (3 KT):0
Visibility: 10 mile(s):0
Sky conditions: clear
Temperature: 6.1 F (-14.4 C)
Dew Point: 1.0 F (-17.2 C)
Relative Humidity: 79%
Pressure (altimeter): 30.42 in. Hg (1030 hPa)
ob: KRKD 130756Z AUTO 30003KT 10SM CLR M14/M17 A3042 RMK AO2 SLP303 T11441172 FZRANO
cycle: 8

Station Type Date Time Source
KRKD TAF 2018/12/13 06:24 UTC NOAA

TAF KRKD 130521Z 1306/1406 34004KT P6SM SKC
FM131700 22004KT P6SM BKN250


Example: see airport list